createdAt,value
2022-11-14T00:01:26.871Z,10.25
2022-11-14T00:04:14.667Z,12.60
2022-11-14T00:07:01.780Z,11.73
2022-11-14T00:09:48.845Z,10.45
2022-11-14T00:12:36.128Z,8.05
2022-11-14T00:15:23.512Z,10.50
2022-11-14T00:18:13.736Z,11.40
2022-11-14T00:21:00.383Z,10.52
2022-11-14T00:23:47.829Z,13.55
2022-11-14T00:26:35.266Z,7.97
2022-11-14T00:29:23.057Z,9.55
2022-11-14T00:32:10.085Z,9.25
2022-11-14T00:34:59.092Z,10.50
2022-11-14T00:37:45.640Z,8.02
2022-11-14T00:40:33.444Z,8.50
2022-11-14T00:43:20.640Z,10.70
2022-11-14T00:46:07.770Z,10.05
2022-11-14T00:48:54.879Z,9.07
2022-11-14T00:51:43.432Z,10.60
2022-11-14T00:54:30.957Z,11.98
2022-11-14T00:57:18.307Z,10.80
2022-11-14T01:00:06.698Z,13.80
2022-11-14T01:02:56.938Z,11.27
2022-11-14T01:05:49.830Z,10.13
2022-11-14T01:08:38.828Z,11.43
2022-11-14T01:11:26.233Z,12.98
2022-11-14T01:14:13.415Z,14.48
2022-11-14T01:17:00.442Z,12.75
2022-11-14T01:19:47.664Z,12.75
2022-11-14T01:22:34.682Z,12.48
2022-11-14T01:25:22.930Z,9.25
2022-11-14T01:28:11.038Z,9.20
2022-11-14T01:30:58.291Z,7.95
2022-11-14T01:33:45.656Z,9.63
2022-11-14T01:36:32.407Z,8.52
2022-11-14T01:39:19.490Z,11.45
2022-11-14T01:42:07.950Z,9.90
2022-11-14T01:44:55.186Z,8.60
2022-11-14T01:47:43.374Z,10.45
2022-11-14T01:50:30.522Z,8.10
2022-11-14T01:53:17.682Z,9.82
2022-11-14T01:56:08.784Z,9.50
2022-11-14T01:59:03.401Z,9.55
2022-11-14T02:01:53.387Z,9.30
2022-11-14T02:04:44.422Z,8.88
2022-11-14T02:07:35.752Z,9.57
2022-11-14T02:10:23.454Z,9.43
2022-11-14T02:13:10.677Z,8.40
2022-11-14T02:15:59.243Z,11.13
2022-11-14T02:18:45.924Z,9.30
2022-11-14T02:21:34.550Z,10.07
2022-11-14T02:24:21.492Z,10.50
2022-11-14T02:27:09.917Z,10.07
2022-11-14T02:30:05.447Z,8.07
2022-11-14T02:35:59.898Z,9.57
2022-11-14T02:38:48.259Z,10.50
2022-11-14T02:41:35.511Z,7.65
2022-11-14T02:44:22.347Z,8.90
2022-11-14T02:47:09.265Z,8.68
2022-11-14T02:49:56.476Z,8.75
2022-11-14T02:52:43.531Z,9.50
2022-11-14T02:55:31.803Z,11.13
2022-11-14T02:58:19.026Z,10.13
2022-11-14T03:01:20.276Z,13.75
2022-11-14T03:04:08.230Z,11.20
2022-11-14T03:06:55.364Z,9.90
2022-11-14T03:09:42.263Z,14.13
2022-11-14T03:12:30.700Z,9.15
2022-11-14T03:15:17.581Z,8.65
2022-11-14T03:18:07.381Z,11.82
2022-11-14T03:20:54.464Z,7.78
2022-11-14T03:23:41.610Z,8.50
2022-11-14T03:26:28.692Z,10.68
2022-11-14T03:29:16.861Z,10.02
2022-11-14T03:32:03.698Z,8.30
2022-11-14T03:34:50.515Z,10.70
2022-11-14T03:37:37.613Z,9.13
2022-11-14T03:40:24.689Z,7.53
2022-11-14T03:43:12.227Z,7.72
2022-11-14T03:46:01.308Z,7.97
2022-11-14T03:48:48.943Z,9.15
2022-11-14T03:51:36.834Z,10.05
2022-11-14T03:54:23.857Z,9.27
2022-11-14T03:57:11.066Z,8.27
2022-11-14T03:59:58.137Z,7.93
2022-11-14T04:02:46.796Z,8.52
2022-11-14T04:05:34.681Z,8.48
2022-11-14T04:08:21.953Z,8.25
2022-11-14T04:11:11.431Z,9.30
2022-11-14T04:13:59.112Z,9.43
2022-11-14T04:16:45.811Z,9.38
2022-11-14T04:19:34.063Z,8.63
2022-11-14T04:22:21.510Z,8.65
2022-11-14T04:25:10.072Z,9.20
2022-11-14T04:27:57.011Z,10.43
2022-11-14T04:30:45.324Z,10.68
2022-11-14T04:33:32.598Z,9.80
2022-11-14T04:36:20.807Z,8.82
2022-11-14T04:39:07.883Z,11.00
2022-11-14T04:41:54.651Z,9.48
2022-11-14T04:44:41.726Z,11.95
2022-11-14T04:47:28.959Z,8.52
2022-11-14T04:50:16.624Z,7.25
2022-11-14T04:53:05.372Z,11.95
2022-11-14T04:55:53.306Z,9.25
2022-11-14T04:58:40.196Z,9.85
2022-11-14T05:01:27.147Z,9.38
2022-11-14T05:04:14.245Z,11.05
2022-11-14T05:07:01.361Z,13.07
2022-11-14T05:09:49.976Z,13.23
2022-11-14T05:12:37.168Z,15.73
2022-11-14T05:15:24.279Z,11.40
2022-11-14T05:18:11.213Z,11.73
2022-11-14T05:21:00.563Z,10.63
2022-11-14T05:23:48.284Z,9.75
2022-11-14T05:26:37.591Z,9.13
2022-11-14T05:29:24.928Z,12.82
2022-11-14T05:32:16.128Z,12.98
2022-11-14T05:35:03.236Z,11.40
2022-11-14T05:37:50.348Z,11.60
2022-11-14T05:40:38.968Z,10.93
2022-11-14T05:43:30.266Z,13.98
2022-11-14T05:46:17.711Z,15.77
2022-11-14T05:49:05.455Z,9.38
2022-11-14T05:51:52.865Z,12.65
2022-11-14T05:54:40.379Z,12.10
2022-11-14T05:57:27.358Z,13.18
2022-11-14T06:00:18.281Z,14.88
2022-11-14T06:03:05.515Z,19.55
2022-11-14T06:05:52.719Z,12.52
2022-11-14T06:08:40.270Z,12.30
2022-11-14T06:11:28.648Z,8.60
2022-11-14T06:14:16.038Z,9.73
2022-11-14T06:17:05.375Z,8.00
2022-11-14T06:19:52.361Z,7.78
2022-11-14T06:22:40.061Z,7.15
2022-11-14T06:25:27.038Z,6.05
2022-11-14T06:28:14.246Z,10.25
2022-11-14T06:31:02.355Z,6.88
2022-11-14T06:33:51.255Z,7.10
2022-11-14T06:36:39.315Z,8.30
2022-11-14T06:39:27.174Z,9.00
2022-11-14T06:42:16.821Z,7.00
2022-11-14T06:45:03.935Z,7.65
2022-11-14T06:47:51.183Z,7.60
2022-11-14T06:50:39.722Z,8.68
2022-11-14T06:53:28.127Z,10.60
2022-11-14T06:56:16.392Z,11.00
2022-11-14T06:59:04.447Z,13.48
2022-11-14T07:01:51.530Z,12.70
2022-11-14T07:04:38.559Z,15.77
2022-11-14T07:07:28.810Z,15.10
2022-11-14T07:10:16.046Z,14.00
2022-11-14T07:13:03.134Z,18.05
2022-11-14T07:15:53.193Z,16.48
2022-11-14T07:18:40.271Z,17.35
2022-11-14T07:21:28.795Z,17.10
2022-11-14T07:24:18.135Z,19.65
2022-11-14T07:27:11.089Z,20.10
2022-11-14T07:29:58.115Z,19.63
2022-11-14T07:32:45.219Z,18.15
2022-11-14T07:35:32.202Z,20.63
2022-11-14T07:38:19.288Z,20.05
2022-11-14T07:41:10.191Z,21.83
2022-11-14T07:43:57.351Z,21.17
2022-11-14T07:46:45.099Z,20.80
2022-11-14T07:49:32.017Z,19.63
2022-11-14T07:52:19.047Z,23.08
2022-11-14T07:55:06.745Z,20.92
2022-11-14T07:57:56.321Z,19.60
2022-11-14T08:00:43.548Z,20.30
2022-11-14T08:03:31.324Z,17.77
2022-11-14T08:06:18.251Z,16.63
2022-11-14T08:10:07.647Z,18.15
2022-11-14T08:13:29.782Z,12.00
2022-11-14T08:16:13.315Z,10.95
2022-11-14T08:19:01.543Z,13.05
2022-11-14T08:21:48.781Z,10.20
2022-11-14T08:24:35.981Z,9.88
2022-11-14T08:27:23.545Z,12.20
2022-11-14T08:30:14.004Z,10.02
2022-11-14T08:33:04.054Z,11.77
2022-11-14T08:35:51.316Z,11.80
2022-11-14T08:38:38.853Z,10.60
2022-11-14T08:41:26.280Z,10.23
2022-11-14T08:44:13.943Z,11.18
2022-11-14T08:47:03.967Z,9.85
2022-11-14T08:49:50.802Z,9.73
2022-11-14T08:52:38.105Z,10.38
2022-11-14T08:55:25.224Z,10.45
2022-11-14T08:58:12.633Z,12.32
2022-11-14T09:01:05.141Z,12.35
2022-11-14T09:03:59.403Z,10.57
2022-11-14T09:06:47.531Z,12.10
2022-11-14T09:09:34.623Z,11.90
2022-11-14T09:12:21.632Z,13.40
2022-11-14T09:15:10.878Z,10.48
2022-11-14T09:17:59.006Z,10.57
2022-11-14T09:20:47.664Z,9.65
2022-11-14T09:23:35.420Z,10.40
2022-11-14T09:26:22.705Z,12.18
2022-11-14T09:29:10.071Z,13.35
2022-11-14T09:31:57.464Z,14.30
2022-11-14T09:34:45.825Z,15.55
2022-11-14T09:37:35.032Z,18.15
2022-11-14T09:40:22.316Z,17.80
2022-11-14T09:43:35.000Z,16.65
2022-11-14T09:46:25.320Z,22.92
2022-11-14T09:49:21.849Z,15.60
2022-11-14T09:52:18.927Z,18.90
2022-11-14T09:55:14.936Z,17.55
2022-11-14T09:58:04.862Z,18.48
2022-11-14T10:01:01.908Z,17.08
2022-11-14T10:04:01.299Z,17.63
2022-11-14T10:07:00.935Z,22.25
2022-11-14T10:09:57.764Z,18.25
2022-11-14T10:12:57.853Z,18.27
2022-11-14T10:15:49.121Z,21.27
2022-11-14T10:18:47.862Z,21.42
2022-11-14T10:21:52.993Z,19.55
2022-11-14T10:24:57.697Z,22.92
2022-11-14T10:27:58.457Z,25.73
2022-11-14T10:30:57.077Z,31.02
2022-11-14T10:33:53.725Z,21.52
2022-11-14T10:36:50.380Z,22.75
2022-11-14T10:39:43.355Z,19.35
2022-11-14T10:42:36.921Z,22.23
2022-11-14T10:45:31.196Z,17.95
2022-11-14T10:48:26.025Z,16.65
2022-11-14T10:51:22.089Z,16.60
2022-11-14T10:54:17.628Z,16.05
2022-11-14T10:57:05.003Z,18.75
2022-11-14T10:59:55.946Z,18.05
2022-11-14T11:02:53.805Z,16.25
2022-11-14T11:05:49.830Z,14.50
2022-11-14T11:09:00.931Z,15.43
2022-11-14T11:11:55.951Z,14.63
2022-11-14T11:14:43.870Z,17.02
2022-11-14T11:17:37.063Z,15.85
2022-11-14T11:20:32.233Z,16.42
2022-11-14T11:23:23.968Z,15.50
2022-11-14T11:29:09.745Z,16.67
2022-11-14T11:31:59.149Z,15.15
2022-11-14T11:34:47.003Z,14.07
2022-11-14T11:37:41.261Z,15.27
2022-11-14T11:40:31.570Z,16.60
2022-11-14T11:43:42.104Z,16.23
2022-11-14T11:46:36.623Z,15.27
2022-11-14T11:49:36.620Z,16.08
2022-11-14T11:52:33.422Z,16.85
2022-11-14T11:55:27.644Z,15.85
2022-11-14T11:58:22.309Z,15.05
2022-11-14T12:01:12.141Z,15.65
2022-11-14T12:03:59.810Z,12.93
2022-11-14T12:06:52.242Z,14.85
2022-11-14T12:10:09.224Z,16.40
2022-11-14T12:13:13.896Z,15.45
2022-11-14T12:16:13.237Z,19.35
2022-11-14T12:19:25.922Z,18.48
2022-11-14T12:22:26.754Z,16.02
2022-11-14T12:25:49.097Z,19.83
2022-11-14T12:29:04.824Z,14.85
2022-11-14T12:32:04.122Z,17.08
2022-11-14T12:35:00.301Z,17.85
2022-11-14T12:37:56.427Z,14.55
2022-11-14T12:40:58.617Z,17.35
2022-11-14T12:43:48.885Z,17.42
2022-11-14T12:47:09.665Z,13.75
2022-11-14T12:50:02.974Z,18.00
2022-11-14T12:52:54.084Z,16.20
2022-11-14T12:56:15.081Z,22.45
2022-11-14T12:59:27.151Z,20.88
2022-11-14T13:02:47.610Z,22.27
2022-11-14T13:05:53.611Z,21.05
2022-11-14T13:09:00.954Z,15.82
2022-11-14T13:12:06.769Z,16.08
2022-11-14T13:15:15.631Z,14.10
2022-11-14T13:18:33.478Z,17.02
2022-11-14T13:21:45.666Z,14.35
2022-11-14T13:25:06.145Z,14.90
2022-11-14T13:28:18.946Z,15.05
2022-11-14T13:31:19.567Z,13.63
2022-11-14T13:34:34.172Z,11.68
2022-11-14T13:37:36.730Z,16.92
2022-11-14T13:40:30.068Z,14.02
2022-11-14T13:43:25.577Z,10.82
2022-11-14T13:46:28.209Z,12.52
2022-11-14T13:49:34.261Z,12.65
2022-11-14T13:52:21.852Z,12.90
2022-11-14T13:55:09.626Z,12.02
2022-11-14T13:58:10.185Z,13.25
2022-11-14T14:01:15.999Z,12.90
2022-11-14T14:04:18.893Z,12.50
2022-11-14T14:10:07.646Z,13.25
2022-11-14T14:13:08.832Z,14.02
2022-11-14T14:16:05.703Z,21.10
2022-11-14T14:19:02.628Z,28.67
2022-11-14T14:22:00.194Z,16.17
2022-11-14T14:24:56.176Z,12.52
2022-11-14T14:27:57.112Z,15.45
2022-11-14T14:31:02.685Z,16.63
2022-11-14T14:33:52.498Z,18.52
2022-11-14T14:36:52.861Z,14.05
2022-11-14T14:39:40.644Z,18.40
2022-11-14T14:42:35.125Z,15.45
2022-11-14T14:45:25.588Z,15.82
2022-11-14T14:48:15.890Z,13.70
2022-11-14T14:51:05.393Z,13.77
2022-11-14T14:53:54.941Z,15.13
2022-11-14T14:56:54.512Z,17.60
2022-11-14T14:59:42.496Z,14.25
2022-11-14T15:02:31.401Z,13.85
2022-11-14T15:05:26.115Z,15.43
2022-11-14T15:08:15.391Z,12.65
2022-11-14T15:11:04.926Z,15.20
2022-11-14T15:13:55.760Z,14.82
2022-11-14T15:16:44.193Z,12.50
2022-11-14T15:19:39.301Z,13.68
2022-11-14T15:22:29.409Z,11.98
2022-11-14T15:25:21.503Z,17.25
2022-11-14T15:28:18.100Z,20.10
2022-11-14T15:31:06.716Z,27.33
2022-11-14T15:34:06.228Z,15.85
2022-11-14T15:37:24.318Z,12.70
2022-11-14T15:40:22.594Z,12.27
2022-11-14T15:43:38.521Z,13.75
2022-11-14T15:46:35.440Z,14.82
2022-11-14T15:49:25.148Z,12.02
2022-11-14T15:52:22.213Z,21.15
2022-11-14T15:55:15.838Z,15.60
2022-11-14T16:01:17.371Z,16.52
2022-11-14T16:04:05.092Z,13.93
2022-11-14T16:06:52.057Z,21.48
2022-11-14T16:09:39.929Z,15.38
2022-11-14T16:12:27.205Z,12.63
2022-11-14T16:15:14.634Z,11.55
2022-11-14T16:18:05.571Z,11.80
2022-11-14T16:20:52.766Z,11.43
2022-11-14T16:23:40.245Z,11.23
2022-11-14T16:26:27.378Z,10.88
2022-11-14T16:29:14.914Z,12.65
2022-11-14T16:32:03.262Z,10.48
2022-11-14T16:34:51.600Z,10.85
2022-11-14T16:37:39.313Z,62.30
2022-11-14T16:40:28.196Z,79.53
2022-11-14T16:43:16.306Z,60.75
2022-11-14T16:46:05.813Z,50.55
2022-11-14T16:48:53.332Z,28.67
2022-11-14T16:51:50.491Z,21.40
2022-11-14T16:54:38.019Z,22.65
2022-11-14T16:57:25.893Z,36.45
2022-11-14T17:00:14.852Z,33.45
2022-11-14T17:03:02.141Z,33.13
2022-11-14T17:05:50.912Z,24.67
2022-11-14T17:08:40.072Z,16.98
2022-11-14T17:11:28.120Z,19.13
2022-11-14T17:14:15.264Z,14.52
2022-11-14T17:17:02.500Z,28.63
2022-11-14T17:19:49.713Z,27.20
2022-11-14T17:22:37.451Z,22.77
2022-11-14T17:25:26.253Z,25.58
2022-11-14T17:28:15.018Z,21.25
2022-11-14T17:31:07.037Z,30.65
2022-11-14T17:33:54.738Z,37.83
2022-11-14T17:36:41.576Z,59.60
2022-11-14T17:39:28.503Z,43.38
2022-11-14T17:42:17.240Z,47.83
2022-11-14T17:45:05.116Z,65.82
2022-11-14T17:47:52.719Z,48.03
2022-11-14T17:50:40.687Z,31.35
2022-11-14T17:53:28.063Z,26.55
2022-11-14T17:56:16.891Z,31.92
2022-11-14T17:59:05.817Z,29.83
2022-11-14T18:01:54.702Z,21.30
2022-11-14T18:04:42.393Z,31.63
2022-11-14T18:07:33.398Z,25.30
2022-11-14T18:10:21.385Z,29.25
2022-11-14T18:13:08.419Z,38.35
2022-11-14T18:16:02.386Z,37.75
2022-11-14T18:18:49.296Z,23.85
2022-11-14T18:21:38.810Z,18.45
2022-11-14T18:24:26.025Z,14.10
2022-11-14T18:27:13.399Z,21.98
2022-11-14T18:30:08.390Z,20.27
2022-11-14T18:33:08.870Z,38.60
2022-11-14T18:35:57.811Z,35.75
2022-11-14T18:38:45.474Z,32.30
2022-11-14T18:41:32.668Z,26.50
2022-11-14T18:44:21.311Z,23.88
2022-11-14T18:47:08.579Z,29.70
2022-11-14T18:49:59.561Z,36.50
2022-11-14T18:52:47.031Z,33.45
2022-11-14T18:55:34.107Z,34.28
2022-11-14T18:58:21.142Z,36.60
2022-11-14T19:01:12.810Z,39.00
2022-11-14T19:04:02.107Z,51.22
2022-11-14T19:06:50.836Z,32.45
2022-11-14T19:09:37.989Z,27.42
2022-11-14T19:12:25.780Z,28.65
2022-11-14T19:15:13.987Z,20.88
2022-11-14T19:18:00.908Z,22.50
2022-11-14T19:20:57.531Z,20.88
2022-11-14T19:23:46.197Z,26.50
2022-11-14T19:26:33.450Z,26.00
2022-11-14T19:29:21.270Z,34.47
2022-11-14T19:32:09.845Z,31.95
2022-11-14T19:34:56.730Z,32.65
2022-11-14T19:37:43.958Z,30.67
2022-11-14T19:40:32.388Z,25.17
2022-11-14T19:43:20.224Z,29.40
2022-11-14T19:46:07.909Z,46.97
2022-11-14T19:48:57.505Z,67.78
2022-11-14T19:51:44.881Z,72.60
2022-11-14T19:54:32.011Z,46.85
2022-11-14T19:57:20.378Z,40.17
2022-11-14T20:00:08.968Z,28.27
2022-11-14T20:02:56.640Z,26.58
2022-11-14T20:05:44.107Z,55.42
2022-11-14T20:08:31.758Z,45.55
2022-11-14T20:11:19.803Z,35.55
2022-11-14T20:14:08.361Z,36.90
2022-11-14T20:16:55.576Z,30.10
2022-11-14T20:19:42.782Z,21.45
2022-11-14T20:22:29.482Z,27.10
2022-11-14T20:25:17.185Z,29.98
2022-11-14T20:28:08.089Z,32.05
2022-11-14T20:30:56.922Z,29.40
2022-11-14T20:33:45.997Z,25.58
2022-11-14T20:36:56.585Z,26.67
2022-11-14T20:39:40.476Z,23.05
2022-11-14T20:42:27.562Z,20.80
2022-11-14T20:45:14.813Z,26.10
2022-11-14T20:48:03.834Z,30.42
2022-11-14T20:50:50.928Z,40.00
2022-11-14T20:53:37.980Z,28.73
2022-11-14T20:56:25.120Z,21.92
2022-11-14T20:59:12.363Z,23.33
2022-11-14T21:01:59.897Z,21.98
2022-11-14T21:04:48.871Z,21.45
2022-11-14T21:07:35.791Z,21.70
2022-11-14T21:10:40.036Z,30.95
2022-11-14T21:13:44.791Z,31.83
2022-11-14T21:16:34.448Z,30.08
2022-11-14T21:19:22.886Z,31.08
2022-11-14T21:22:11.102Z,19.35
2022-11-14T21:24:58.339Z,24.08
2022-11-14T21:27:46.022Z,21.95
2022-11-14T21:30:34.705Z,30.08
2022-11-14T21:33:21.722Z,21.27
2022-11-14T21:36:30.140Z,28.40
2022-11-14T21:39:18.439Z,28.50
2022-11-14T21:42:06.340Z,26.70
2022-11-14T21:44:53.475Z,24.48
2022-11-14T21:47:40.466Z,34.85
2022-11-14T21:50:27.538Z,29.08
2022-11-14T21:53:16.281Z,36.65
2022-11-14T21:56:12.969Z,33.50
2022-11-14T21:59:14.879Z,28.83
2022-11-14T22:05:07.288Z,22.08
2022-11-14T22:07:55.100Z,23.85
2022-11-14T22:10:42.392Z,27.63
2022-11-14T22:13:32.825Z,24.70
2022-11-14T22:16:21.058Z,24.45
2022-11-14T22:19:10.045Z,24.10
2022-11-14T22:21:57.755Z,23.38
2022-11-14T22:24:45.161Z,25.70
2022-11-14T22:27:32.547Z,23.23
2022-11-14T22:30:21.370Z,25.40
2022-11-14T22:33:08.787Z,24.40
2022-11-14T22:35:56.352Z,27.58
2022-11-14T22:38:44.625Z,26.67
2022-11-14T22:41:33.977Z,30.08
2022-11-14T22:44:20.949Z,34.15
2022-11-14T22:47:09.919Z,38.75
2022-11-14T22:49:56.973Z,40.45
2022-11-14T22:52:43.986Z,37.28
2022-11-14T22:55:31.051Z,34.22
2022-11-14T22:58:18.118Z,28.05
2022-11-14T23:01:12.779Z,27.08
2022-11-14T23:04:03.507Z,28.42
2022-11-14T23:06:53.173Z,29.83
2022-11-14T23:09:40.110Z,30.48
2022-11-14T23:12:27.667Z,30.08
2022-11-14T23:15:15.068Z,25.52
2022-11-14T23:18:02.771Z,27.10
2022-11-14T23:20:51.818Z,27.85
2022-11-14T23:23:38.853Z,26.77
2022-11-14T23:26:26.839Z,26.88
2022-11-14T23:29:15.233Z,29.25
2022-11-14T23:32:02.591Z,26.00
2022-11-14T23:34:49.858Z,27.73
2022-11-14T23:37:38.288Z,28.70
2022-11-14T23:40:25.656Z,26.60
2022-11-14T23:43:12.733Z,28.30
2022-11-14T23:46:00.477Z,30.52
2022-11-14T23:48:47.849Z,29.17
2022-11-14T23:51:35.003Z,26.60
2022-11-14T23:54:23.549Z,29.08
2022-11-14T23:57:10.997Z,28.95
2022-11-14T23:59:58.136Z,27.80
